Time;durP1;ratioP1;P1;durP2;ratioP2;P2;SDS_P1;SDS_P2;PMS_P1;PMS_P2;Temp;Humidity;BMP_temperature;BMP_pressure;BME280_temperature;BME280_humidity;BME280_pressure;Samples;Min_cycle;Max_cycle;Signal;HPM_P1;HPM_P2
2022/04/25 00:01:58;;;;;;;23.63;18.52;;;9.00;99.90;;;;;;4970429;28;20027;-49
2022/04/25 00:04:24;;;;;;;28.10;20.63;;;9.00;99.90;;;;;;4955786;29;20062;-41
2022/04/25 00:06:49;;;;;;;34.20;25.33;;;9.00;99.90;;;;;;4970178;28;20031;-42
2022/04/25 00:09:15;;;;;;;19.63;16.02;;;9.00;99.90;;;;;;4955244;28;20023;-45
2022/04/25 00:11:40;;;;;;;14.85;12.77;;;9.00;99.90;;;;;;4955363;29;20078;-45
2022/04/25 00:14:07;;;;;;;14.20;12.70;;;9.00;99.90;;;;;;4955290;28;20019;-47
2022/04/25 00:16:33;;;;;;;14.48;12.23;;;9.00;99.90;;;;;;4955287;28;20391;-47
2022/04/25 00:19:00;;;;;;;13.60;12.23;;;9.00;99.90;;;;;;4954738;28;20031;-45
2022/04/25 00:21:26;;;;;;;13.90;12.15;;;9.00;99.90;;;;;;4955146;29;20122;-47
2022/04/25 00:23:51;;;;;;;14.77;13.00;;;8.90;99.90;;;;;;4955182;29;20031;-45
2022/04/25 00:26:17;;;;;;;13.88;12.32;;;8.90;99.90;;;;;;4955034;29;20098;-43
2022/04/25 00:28:43;;;;;;;15.00;13.50;;;8.80;99.90;;;;;;4954337;28;20078;-45
2022/04/25 00:31:09;;;;;;;16.70;14.60;;;8.80;99.90;;;;;;4954921;28;20125;-45
2022/04/25 00:33:34;;;;;;;15.25;13.65;;;8.80;99.90;;;;;;4969813;28;20031;-44
2022/04/25 00:36:00;;;;;;;14.93;13.32;;;8.80;99.90;;;;;;4954930;29;20027;-45
2022/04/25 00:38:26;;;;;;;17.70;15.18;;;8.70;99.90;;;;;;4954354;28;20035;-45
2022/04/25 00:40:51;;;;;;;15.23;13.70;;;8.70;99.90;;;;;;4969650;28;20027;-43
2022/04/25 00:43:17;;;;;;;14.32;12.95;;;8.70;99.90;;;;;;4954474;29;20179;-44
2022/04/25 00:45:42;;;;;;;15.73;13.48;;;8.70;99.90;;;;;;4954316;28;20118;-46
2022/04/25 00:48:08;;;;;;;18.05;15.88;;;8.70;99.90;;;;;;4953694;29;20027;-43
2022/04/25 00:50:33;;;;;;;15.98;14.18;;;8.70;99.90;;;;;;4954674;29;20031;-43
2022/04/25 00:52:59;;;;;;;19.67;16.08;;;8.70;99.90;;;;;;4953925;28;20617;-43
2022/04/25 00:55:25;;;;;;;20.35;17.02;;;8.60;99.90;;;;;;4969255;28;20403;-43
2022/04/25 00:57:52;;;;;;;19.00;16.48;;;8.60;99.90;;;;;;4968905;28;20220;-43
2022/04/25 01:00:18;;;;;;;21.40;17.70;;;8.60;99.90;;;;;;4954408;28;20027;-47
2022/04/25 01:02:44;;;;;;;21.27;17.80;;;8.60;99.90;;;;;;4954400;29;20050;-46
2022/04/25 01:05:09;;;;;;;21.08;17.30;;;8.60;99.90;;;;;;4954105;29;20024;-45
2022/04/25 01:07:37;;;;;;;21.75;18.00;;;8.70;99.90;;;;;;4954022;28;20027;-45
2022/04/25 01:10:07;;;;;;;24.08;18.33;;;8.60;99.90;;;;;;4953948;28;20114;-48
2022/04/25 01:12:33;;;;;;;19.52;17.35;;;8.70;99.90;;;;;;4954264;29;20046;-44
2022/04/25 01:15:10;;;;;;;18.83;16.20;;;8.60;99.90;;;;;;4954087;29;20057;-45
2022/04/25 01:17:36;;;;;;;18.73;16.48;;;8.50;99.90;;;;;;4953821;29;20038;-43
2022/04/25 01:20:03;;;;;;;19.75;17.48;;;8.60;99.90;;;;;;4953763;28;20534;-43
2022/04/25 01:22:48;;;;;;;19.15;17.08;;;8.60;99.90;;;;;;4953858;29;20029;-45
2022/04/25 01:28:01;;;;;;;21.02;18.60;;;8.50;99.90;;;;;;4953428;29;20034;-48
2022/04/25 01:30:28;;;;;;;22.60;18.15;;;8.40;99.90;;;;;;4953935;29;20411;-44
2022/04/25 01:32:53;;;;;;;19.20;17.13;;;8.50;99.90;;;;;;4954106;28;20510;-45
2022/04/25 01:35:19;;;;;;;19.42;16.88;;;8.40;99.90;;;;;;4953680;28;20068;-44
2022/04/25 01:37:45;;;;;;;19.60;16.98;;;8.40;99.90;;;;;;4953340;29;20098;-44
2022/04/25 01:40:11;;;;;;;20.13;17.77;;;8.50;99.90;;;;;;4953569;29;20435;-43
2022/04/25 01:42:36;;;;;;;25.88;18.20;;;8.50;99.90;;;;;;4953849;29;20067;-43
2022/04/25 01:45:02;;;;;;;25.73;17.33;;;8.50;99.90;;;;;;4953698;28;20542;-47
2022/04/25 01:47:28;;;;;;;23.77;19.38;;;8.60;99.90;;;;;;4968088;28;20458;-44
2022/04/25 01:49:54;;;;;;;22.73;18.77;;;8.60;99.90;;;;;;4953415;28;20399;-43
2022/04/25 01:52:22;;;;;;;25.42;19.83;;;8.70;99.90;;;;;;4953441;28;20020;-45
2022/04/25 01:54:48;;;;;;;20.10;18.00;;;8.70;99.90;;;;;;4953436;29;20077;-44
2022/04/25 01:57:13;;;;;;;22.73;18.70;;;8.60;99.90;;;;;;4952944;28;20506;-46
2022/04/25 01:59:39;;;;;;;22.15;18.88;;;8.60;99.90;;;;;;4953149;28;20098;-45
2022/04/25 02:02:05;;;;;;;21.83;19.05;;;8.50;99.90;;;;;;4953458;29;20491;-47
2022/04/25 02:04:31;;;;;;;22.15;19.33;;;8.50;99.90;;;;;;4953349;28;20063;-44
2022/04/25 02:06:57;;;;;;;22.30;18.77;;;8.50;99.90;;;;;;4953142;29;20034;-43
2022/04/25 02:09:23;;;;;;;23.88;18.75;;;8.50;99.90;;;;;;4953112;28;20031;-44
2022/04/25 02:11:49;;;;;;;23.80;19.02;;;8.50;99.90;;;;;;4953370;28;20380;-45
2022/04/25 02:14:15;;;;;;;21.48;18.98;;;8.50;99.90;;;;;;4953424;29;20038;-46
2022/04/25 02:16:40;;;;;;;21.30;16.95;;;8.50;99.90;;;;;;4953420;28;20027;-42
2022/04/25 02:19:06;;;;;;;20.70;18.15;;;8.50;99.90;;;;;;4967669;28;20040;-43
2022/04/25 02:21:32;;;;;;;21.48;18.23;;;8.50;99.90;;;;;;4953326;29;20035;-49
2022/04/25 02:23:57;;;;;;;19.90;17.58;;;8.50;99.90;;;;;;4953245;29;20023;-45
2022/04/25 02:26:23;;;;;;;20.33;18.17;;;8.40;99.90;;;;;;4953256;28;20027;-44
2022/04/25 02:28:48;;;;;;;21.95;18.20;;;8.30;99.90;;;;;;4954044;29;20039;-43
2022/04/25 02:31:14;;;;;;;27.27;19.35;;;8.20;99.90;;;;;;4953295;29;20086;-44
2022/04/25 02:33:43;;;;;;;20.83;18.58;;;8.20;99.90;;;;;;4968197;28;20027;-44
2022/04/25 02:36:09;;;;;;;22.05;18.83;;;8.10;99.90;;;;;;4953172;29;20030;-42
2022/04/25 02:38:36;;;;;;;24.52;19.40;;;8.10;99.90;;;;;;4952816;29;20403;-45
2022/04/25 02:41:05;;;;;;;23.85;20.02;;;8.10;99.90;;;;;;4953053;29;20059;-45
2022/04/25 02:43:39;;;;;;;23.38;20.17;;;8.00;99.90;;;;;;4953164;28;20023;-43
2022/04/25 02:46:10;;;;;;;27.57;20.57;;;7.90;99.90;;;;;;4953458;28;20019;-45
2022/04/25 02:48:37;;;;;;;28.25;21.40;;;7.90;99.90;;;;;;4952737;29;20023;-46
2022/04/25 02:51:03;;;;;;;23.42;20.55;;;7.80;99.90;;;;;;4953013;29;20037;-44
2022/04/25 02:53:29;;;;;;;24.20;21.63;;;7.80;99.90;;;;;;4952661;29;20495;-43
2022/04/25 02:55:55;;;;;;;24.30;21.58;;;7.80;99.90;;;;;;4953324;29;20034;-42
2022/04/25 02:58:22;;;;;;;27.10;20.00;;;7.80;99.90;;;;;;4952844;28;20031;-45
2022/04/25 03:00:48;;;;;;;26.77;21.70;;;7.80;99.90;;;;;;4952770;28;20110;-44
2022/04/25 03:03:15;;;;;;;26.42;20.85;;;7.80;99.90;;;;;;4952979;29;20501;-46
2022/04/25 03:05:45;;;;;;;26.27;20.83;;;7.70;99.90;;;;;;4952888;29;20098;-45
2022/04/25 03:08:12;;;;;;;25.58;20.70;;;7.70;99.90;;;;;;4952498;29;20455;-45
2022/04/25 03:10:38;;;;;;;23.13;20.00;;;7.70;99.90;;;;;;4954929;28;20027;-43
2022/04/25 03:13:07;;;;;;;24.70;20.55;;;7.80;99.90;;;;;;4956401;28;20359;-44
2022/04/25 03:15:34;;;;;;;24.08;19.48;;;7.70;99.90;;;;;;4956250;28;20031;-45
2022/04/25 03:18:02;;;;;;;25.77;21.13;;;7.70;99.90;;;;;;4955896;28;20023;-46
2022/04/25 03:20:28;;;;;;;22.65;18.90;;;7.70;99.90;;;;;;4970764;28;20028;-44
2022/04/25 03:22:55;;;;;;;88.35;57.55;;;7.70;99.90;;;;;;4956166;28;20026;-45
2022/04/25 03:25:21;;;;;;;73.80;49.33;;;7.70;99.90;;;;;;4956055;29;20102;-44
2022/04/25 03:27:46;;;;;;;30.92;25.40;;;7.70;99.90;;;;;;4955733;29;20472;-44
2022/04/25 03:30:12;;;;;;;25.98;21.50;;;7.70;99.90;;;;;;4955964;28;20039;-44
2022/04/25 03:32:37;;;;;;;26.20;20.33;;;7.70;99.90;;;;;;4956157;29;20272;-42
2022/04/25 03:35:03;;;;;;;24.42;19.98;;;7.70;99.90;;;;;;4956017;29;20035;-44
2022/04/25 03:37:30;;;;;;;27.05;20.33;;;7.60;99.90;;;;;;4955882;28;20027;-46
2022/04/25 03:39:59;;;;;;;26.67;19.92;;;7.60;99.90;;;;;;4955783;28;20484;-47
2022/04/25 03:42:25;;;;;;;24.60;20.00;;;7.60;99.90;;;;;;4955995;29;20082;-48
2022/04/25 03:44:51;;;;;;;22.00;18.38;;;7.60;99.90;;;;;;4955899;28;20538;-48
2022/04/25 03:47:16;;;;;;;23.80;19.77;;;7.60;99.90;;;;;;4955616;29;20055;-44
2022/04/25 03:49:42;;;;;;;26.45;20.23;;;7.50;99.90;;;;;;4955683;29;20046;-45
2022/04/25 03:52:07;;;;;;;23.35;19.88;;;7.50;99.90;;;;;;4955360;28;20114;-49
2022/04/25 03:57:17;;;;;;;25.77;20.70;;;7.50;99.90;;;;;;4955236;28;20097;-45
2022/04/25 03:59:42;;;;;;;27.33;19.38;;;7.40;99.90;;;;;;4955352;29;20507;-44
2022/04/25 04:02:08;;;;;;;23.80;19.52;;;7.30;99.90;;;;;;4955441;29;20479;-45
2022/04/25 04:04:34;;;;;;;19.48;17.05;;;7.30;99.90;;;;;;4955466;28;20070;-42
2022/04/25 04:06:59;;;;;;;21.35;18.58;;;7.30;99.90;;;;;;4955095;29;20034;-48
2022/04/25 04:12:10;;;;;;;24.50;18.77;;;7.20;99.90;;;;;;4955559;28;20094;-44
2022/04/25 04:14:36;;;;;;;22.27;19.60;;;7.20;99.90;;;;;;4955363;28;20023;-42
2022/04/25 04:17:02;;;;;;;25.00;19.77;;;7.10;99.90;;;;;;4969845;28;20149;-45
2022/04/25 04:19:28;;;;;;;24.27;20.48;;;7.10;99.90;;;;;;4955062;29;20027;-48
2022/04/25 04:21:53;;;;;;;24.92;21.10;;;7.10;99.90;;;;;;4954719;28;20150;-45
2022/04/25 04:24:19;;;;;;;29.48;20.20;;;7.10;99.90;;;;;;4955110;29;20395;-44
2022/04/25 04:26:45;;;;;;;24.45;19.15;;;7.00;99.90;;;;;;4955279;28;20031;-41
2022/04/25 04:29:11;;;;;;;23.38;19.23;;;6.90;99.90;;;;;;4954840;29;20398;-47
2022/04/25 04:31:37;;;;;;;25.02;19.65;;;6.70;99.90;;;;;;4954961;28;20031;-44
2022/04/25 04:34:03;;;;;;;27.65;21.98;;;6.50;99.90;;;;;;4954907;29;20031;-43
2022/04/25 04:36:29;;;;;;;24.67;20.38;;;6.50;99.90;;;;;;4969413;28;20122;-43
2022/04/25 04:38:54;;;;;;;26.67;22.60;;;6.50;99.90;;;;;;4954452;28;20035;-42
2022/04/25 04:41:20;;;;;;;30.52;23.30;;;6.70;99.90;;;;;;4954627;28;20035;-43
2022/04/25 04:43:45;;;;;;;33.63;23.40;;;6.80;99.90;;;;;;4954802;29;20450;-43
2022/04/25 04:46:11;;;;;;;28.90;22.75;;;6.90;99.90;;;;;;4954613;29;20033;-42
2022/04/25 04:48:36;;;;;;;29.05;23.58;;;6.90;99.90;;;;;;4954125;29;20034;-43
2022/04/25 04:51:02;;;;;;;30.80;22.83;;;6.90;99.90;;;;;;4954426;28;20118;-43
2022/04/25 04:53:27;;;;;;;30.40;22.60;;;7.00;99.90;;;;;;4954509;29;20032;-45
2022/04/25 04:55:53;;;;;;;27.67;22.65;;;7.00;99.90;;;;;;4954387;29;20086;-43
2022/04/25 04:58:19;;;;;;;29.27;24.52;;;6.90;99.90;;;;;;4954008;29;20054;-44
2022/04/25 05:00:46;;;;;;;30.98;22.35;;;7.00;99.90;;;;;;4954581;28;20063;-41
2022/04/25 05:03:15;;;;;;;27.67;20.83;;;7.10;99.90;;;;;;4954302;28;20016;-43
2022/04/25 05:05:41;;;;;;;30.42;23.85;;;7.10;99.90;;;;;;4956409;28;20034;-44
2022/04/25 05:08:07;;;;;;;25.92;21.33;;;7.20;99.90;;;;;;4970763;28;20027;-44
2022/04/25 05:10:32;;;;;;;23.00;19.90;;;7.30;99.90;;;;;;4954044;28;20035;-44
2022/04/25 05:12:58;;;;;;;25.45;20.45;;;7.40;99.90;;;;;;4954100;28;20039;-47
2022/04/25 05:15:24;;;;;;;25.38;19.08;;;7.50;99.90;;;;;;4954280;28;20408;-44
2022/04/25 05:17:53;;;;;;;26.60;21.23;;;7.50;99.90;;;;;;4968248;28;20038;-43
2022/04/25 05:20:20;;;;;;;24.25;20.70;;;7.60;99.90;;;;;;4953976;28;20042;-45
2022/04/25 05:22:47;;;;;;;27.40;22.45;;;7.70;99.90;;;;;;4968636;28;20027;-46
2022/04/25 05:25:18;;;;;;;26.83;22.13;;;7.70;99.90;;;;;;4954080;29;20023;-45
2022/04/25 05:27:45;;;;;;;26.33;21.50;;;7.60;99.90;;;;;;4953619;29;20027;-47
2022/04/25 05:30:12;;;;;;;25.33;22.15;;;7.60;99.90;;;;;;4953746;29;20031;-43
2022/04/25 05:32:50;;;;;;;25.70;20.98;;;7.60;99.90;;;;;;4953326;28;20114;-45
2022/04/25 05:35:17;;;;;;;26.23;21.70;;;7.60;99.90;;;;;;4953787;29;20035;-45
2022/04/25 05:37:44;;;;;;;28.15;23.30;;;7.70;99.90;;;;;;4953553;28;20031;-45
2022/04/25 05:40:11;;;;;;;29.85;21.77;;;7.70;99.90;;;;;;4953718;29;20037;-46
2022/04/25 05:42:39;;;;;;;26.08;21.90;;;7.70;99.90;;;;;;4953632;28;20031;-46
2022/04/25 05:45:05;;;;;;;27.17;21.88;;;7.70;99.90;;;;;;4953789;29;20019;-47
2022/04/25 05:47:33;;;;;;;32.83;23.98;;;7.80;99.90;;;;;;4963063;28;20036;-43
2022/04/25 05:52:47;;;;;;;27.17;22.65;;;8.10;99.90;;;;;;4934252;29;20050;-46
2022/04/25 05:55:12;;;;;;;30.73;24.05;;;8.30;99.90;;;;;;4934437;29;20515;-44
2022/04/25 05:57:40;;;;;;;28.15;23.55;;;8.50;99.90;;;;;;4947290;29;20486;-42
2022/04/25 06:00:07;;;;;;;27.17;22.83;;;8.70;99.90;;;;;;4933333;29;20034;-45
2022/04/25 06:02:35;;;;;;;29.15;22.70;;;8.90;99.90;;;;;;4934291;29;20036;-47
2022/04/25 06:05:01;;;;;;;26.88;22.25;;;9.20;99.90;;;;;;4949025;29;20027;-44
2022/04/25 06:07:26;;;;;;;30.73;23.15;;;9.30;99.90;;;;;;4933857;29;20034;-42
2022/04/25 06:09:52;;;;;;;28.35;22.67;;;9.50;99.90;;;;;;4934076;29;20111;-44
2022/04/25 06:12:17;;;;;;;29.13;23.45;;;9.60;99.90;;;;;;4948899;29;20407;-45
2022/04/25 06:14:44;;;;;;;27.42;22.70;;;9.70;99.90;;;;;;4933383;29;20027;-44
2022/04/25 06:17:13;;;;;;;23.55;20.10;;;9.80;99.90;;;;;;4933702;29;20292;-44
2022/04/25 06:19:39;;;;;;;24.00;21.23;;;10.10;99.90;;;;;;4933932;29;20020;-49
2022/04/25 06:22:04;;;;;;;23.27;20.52;;;10.40;99.90;;;;;;4934088;29;20036;-43
2022/04/25 06:24:30;;;;;;;25.10;22.02;;;10.60;99.90;;;;;;4933669;29;20535;-46
2022/04/25 06:26:57;;;;;;;25.27;20.80;;;10.70;99.90;;;;;;4932829;29;20016;-45
2022/04/25 06:29:24;;;;;;;23.33;20.77;;;11.10;99.90;;;;;;4933627;29;20040;-44
2022/04/25 06:31:49;;;;;;;26.95;20.70;;;11.50;99.90;;;;;;4934074;29;20045;-44
2022/04/25 06:34:15;;;;;;;23.55;20.63;;;11.70;99.90;;;;;;4933790;29;20039;-45
2022/04/25 06:36:41;;;;;;;25.88;20.85;;;12.00;99.90;;;;;;4934006;29;20042;-46
2022/04/25 06:39:07;;;;;;;23.50;19.50;;;12.10;99.90;;;;;;4948269;29;20495;-44
2022/04/25 06:41:33;;;;;;;27.05;21.02;;;12.10;99.90;;;;;;4933855;29;20071;-44
2022/04/25 06:43:59;;;;;;;27.08;21.10;;;11.90;99.90;;;;;;4933883;29;20024;-54
2022/04/25 06:46:25;;;;;;;34.92;21.95;;;11.80;99.90;;;;;;4937198;29;20522;-54
2022/04/25 06:51:35;;;;;;;31.73;20.70;;;11.80;99.90;;;;;;4937693;29;20057;-50
2022/04/25 06:54:00;;;;;;;29.35;20.33;;;11.70;99.90;;;;;;4937111;29;20488;-46
2022/04/25 06:56:26;;;;;;;25.45;19.40;;;11.80;99.90;;;;;;4937488;29;20040;-51
2022/04/25 06:58:52;;;;;;;30.50;20.05;;;11.70;99.90;;;;;;4936748;29;20060;-46
2022/04/25 07:01:17;;;;;;;34.00;20.40;;;11.60;99.90;;;;;;4937744;29;20488;-44
2022/04/25 07:03:43;;;;;;;26.80;18.55;;;11.40;99.90;;;;;;4937506;29;20020;-47
2022/04/25 07:06:08;;;;;;;21.23;18.67;;;11.30;99.90;;;;;;4937553;29;20090;-49
2022/04/25 07:08:34;;;;;;;20.02;17.55;;;11.10;99.90;;;;;;4951471;28;20070;-44
2022/04/25 07:10:59;;;;;;;22.35;19.20;;;11.00;99.90;;;;;;4937422;29;20116;-44
2022/04/25 07:13:25;;;;;;;21.00;18.33;;;10.90;99.90;;;;;;4937139;29;20480;-45
2022/04/25 07:15:50;;;;;;;25.25;19.40;;;11.00;99.90;;;;;;4937299;29;20086;-45
2022/04/25 07:18:16;;;;;;;28.15;18.90;;;11.10;99.90;;;;;;4937560;29;20107;-44
2022/04/25 07:20:42;;;;;;;21.75;18.33;;;11.10;99.90;;;;;;4937616;29;20512;-45
2022/04/25 07:28:58;;;;;;;22.40;17.40;;;11.70;99.90;;;;;;4936851;29;20050;-44
2022/04/25 07:31:24;;;;;;;21.88;16.85;;;11.90;99.90;;;;;;4951937;29;20027;-44
2022/04/25 07:33:49;;;;;;;19.10;16.55;;;12.00;99.90;;;;;;4937453;29;20036;-43
2022/04/25 07:36:17;;;;;;;18.58;16.08;;;12.00;99.90;;;;;;4951758;28;20030;-47
2022/04/25 07:38:44;;;;;;;18.92;15.95;;;11.90;99.90;;;;;;4937152;29;20087;-46
2022/04/25 07:41:10;;;;;;;23.33;16.15;;;11.80;99.90;;;;;;4937196;29;20032;-44
2022/04/25 07:43:35;;;;;;;20.95;17.35;;;11.80;99.90;;;;;;4937512;29;20426;-44
2022/04/25 07:46:01;;;;;;;20.73;17.35;;;11.80;99.90;;;;;;4937191;29;20028;-45
2022/04/25 07:48:27;;;;;;;17.80;13.98;;;11.90;99.90;;;;;;4936885;29;20020;-44
2022/04/25 07:50:53;;;;;;;17.25;13.55;;;12.30;99.90;;;;;;4952306;28;20063;-44
2022/04/25 07:53:18;;;;;;;18.90;12.90;;;12.70;99.90;;;;;;4937266;29;20384;-44
2022/04/25 07:55:44;;;;;;;13.13;11.65;;;13.40;99.90;;;;;;4951167;28;20086;-44
2022/04/25 07:58:09;;;;;;;12.93;11.52;;;14.30;99.90;;;;;;4936424;29;20396;-48
2022/04/25 08:00:37;;;;;;;13.52;12.10;;;15.40;99.90;;;;;;4936747;29;20024;-44
2022/04/25 08:03:03;;;;;;;11.75;9.68;;;16.50;97.50;;;;;;4936812;29;20492;-44
2022/04/25 08:05:28;;;;;;;11.00;9.95;;;16.60;96.30;;;;;;4936666;29;20028;-45
2022/04/25 08:07:54;;;;;;;11.05;9.95;;;16.20;96.00;;;;;;4936220;29;20274;-44
2022/04/25 08:10:20;;;;;;;14.18;10.45;;;16.30;96.50;;;;;;4936749;29;20019;-45
2022/04/25 08:18:15;;;;;;;11.82;9.60;;;16.90;95.50;;;;;;4934681;29;20126;-45
2022/04/25 08:20:41;;;;;;;11.15;10.05;;;16.90;94.50;;;;;;4935068;29;20107;-45
2022/04/25 08:23:09;;;;;;;11.60;9.23;;;16.00;96.00;;;;;;4934552;29;20027;-45
2022/04/25 08:25:35;;;;;;;45.72;29.58;;;15.10;97.00;;;;;;4935537;29;20020;-45
2022/04/25 08:28:02;;;;;;;14.27;11.55;;;15.50;97.40;;;;;;4935773;29;20027;-45
2022/04/25 08:30:28;;;;;;;10.38;9.27;;;16.30;96.60;;;;;;5007935;23;20102;-47
2022/04/25 08:32:55;;;;;;;10.88;8.93;;;17.10;95.40;;;;;;4993690;28;20026;-49
2022/04/25 08:35:21;;;;;;;9.77;8.88;;;17.50;94.00;;;;;;4993348;28;20105;-44
2022/04/25 08:37:48;;;;;;;10.95;8.70;;;18.00;93.90;;;;;;4993334;28;20173;-46
2022/04/25 08:40:13;;;;;;;12.35;9.15;;;18.40;92.60;;;;;;4978791;28;20234;-46
2022/04/25 08:42:39;;;;;;;11.02;8.07;;;18.50;91.70;;;;;;4974336;28;20027;-43
2022/04/25 08:45:06;;;;;;;9.20;8.35;;;18.60;91.70;;;;;;4973604;28;20062;-45
2022/04/25 08:47:38;;;;;;;10.98;9.13;;;18.50;91.20;;;;;;4973195;28;20011;-45
2022/04/25 08:50:04;;;;;;;10.32;9.32;;;18.60;91.80;;;;;;4973735;28;20038;-42
2022/04/25 08:52:31;;;;;;;11.57;8.80;;;17.50;91.90;;;;;;4973932;28;20019;-45
2022/04/25 08:54:57;;;;;;;10.00;8.95;;;17.40;93.20;;;;;;4973897;28;20019;-44
2022/04/25 08:57:25;;;;;;;10.98;9.50;;;17.40;92.30;;;;;;4973466;28;20089;-48
2022/04/25 08:59:55;;;;;;;10.77;8.68;;;16.80;92.90;;;;;;4973599;28;20023;-47
2022/04/25 09:02:22;;;;;;;8.73;7.82;;;16.10;93.50;;;;;;4973757;28;20027;-44
2022/04/25 09:04:49;;;;;;;10.88;8.90;;;16.40;92.50;;;;;;5005235;28;20105;-45
2022/04/25 09:07:16;;;;;;;12.32;9.68;;;16.40;93.10;;;;;;4972501;28;20372;-46
2022/04/25 09:09:42;;;;;;;10.40;8.85;;;16.40;93.50;;;;;;4972091;28;20042;-45
2022/04/25 09:12:11;;;;;;;10.95;9.80;;;16.70;93.60;;;;;;4968065;28;20033;-41
2022/04/25 09:14:39;;;;;;;10.20;8.70;;;17.00;92.30;;;;;;4983400;28;20498;-46
2022/04/25 09:17:05;;;;;;;11.07;8.63;;;17.30;92.00;;;;;;4967370;28;20034;-41
2022/04/25 09:19:31;;;;;;;8.27;7.32;;;17.20;91.50;;;;;;4970354;28;20018;-40
2022/04/25 09:21:57;;;;;;;11.68;8.48;;;17.10;91.80;;;;;;4983932;28;20041;-41
2022/04/25 09:24:27;;;;;;;10.38;8.07;;;17.20;91.00;;;;;;4969763;28;20027;-47
2022/04/25 09:27:07;;;;;;;8.70;7.70;;;17.60;90.60;;;;;;4965538;28;20019;-42
2022/04/25 09:29:34;;;;;;;13.32;8.55;;;18.00;90.20;;;;;;4969576;28;20117;-47
2022/04/25 09:32:00;;;;;;;9.40;8.05;;;18.00;90.60;;;;;;4972426;28;20049;-47
2022/04/25 09:37:12;;;;;;;9.93;8.32;;;18.20;90.30;;;;;;4972146;28;20073;-46
2022/04/25 09:39:37;;;;;;;8.95;8.02;;;18.10;90.00;;;;;;4987295;28;20439;-48
2022/04/25 09:42:03;;;;;;;7.88;7.18;;;17.70;90.00;;;;;;4995638;28;20022;-49
2022/04/25 09:44:49;;;;;;;10.52;8.23;;;17.80;90.80;;;;;;4972375;28;20038;-45
2022/04/25 09:47:24;;;;;;;;;;;17.90;90.60;;;;;;4972538;28;20031;-49
2022/04/25 09:50:08;;;;;;;9.93;8.90;;;17.50;90.90;;;;;;4972201;28;19921;-42
2022/04/25 09:52:55;;;;;;;10.05;8.50;;;17.00;90.60;;;;;;4972733;28;20023;-49
2022/04/25 09:55:21;;;;;;;11.07;7.95;;;16.90;91.20;;;;;;4986560;28;20038;-47
2022/04/25 09:57:49;;;;;;;11.55;8.57;;;16.90;92.00;;;;;;4971268;28;20030;-44
2022/04/25 10:00:30;;;;;;;8.60;7.72;;;16.80;91.40;;;;;;4970998;28;20089;-46
2022/04/25 10:02:57;;;;;;;11.10;8.82;;;16.90;91.80;;;;;;4961599;28;20430;-52
2022/04/25 10:05:22;;;;;;;9.68;7.70;;;16.80;90.90;;;;;;4971479;28;20027;-50
2022/04/25 10:07:55;;;;;;;11.82;7.90;;;16.80;91.20;;;;;;4971278;28;20030;-46
2022/04/25 10:10:21;;;;;;;9.07;7.28;;;16.80;91.00;;;;;;4972386;28;20514;-47
2022/04/25 10:12:46;;;;;;;10.20;8.02;;;16.80;91.30;;;;;;4970280;28;20030;-42
2022/04/25 10:15:12;;;;;;;10.05;7.72;;;16.70;90.90;;;;;;4971792;28;20026;-41
2022/04/25 10:17:40;;;;;;;8.90;8.00;;;16.40;91.10;;;;;;4971136;28;20038;-46
2022/04/25 10:20:08;;;;;;;9.75;7.70;;;16.10;91.70;;;;;;4974945;28;20520;-46
2022/04/25 10:22:35;;;;;;;7.85;7.15;;;16.10;92.30;;;;;;4976145;28;20215;-43
2022/04/25 10:25:03;;;;;;;9.88;7.88;;;16.30;92.20;;;;;;4975962;28;20479;-45
2022/04/25 10:27:32;;;;;;;9.27;7.53;;;16.40;92.00;;;;;;4975419;28;20030;-46
2022/04/25 10:30:07;;;;;;;8.43;7.63;;;16.60;92.20;;;;;;4976029;28;20383;-47
2022/04/25 10:32:32;;;;;;;9.20;7.75;;;16.70;92.40;;;;;;4975456;28;20513;-41
2022/04/25 10:35:01;;;;;;;9.85;6.85;;;16.80;91.80;;;;;;4975030;28;20035;-52
2022/04/25 10:37:34;;;;;;;11.13;8.15;;;16.90;91.90;;;;;;4975120;28;20027;-47
2022/04/25 10:40:02;;;;;;;8.27;7.32;;;17.10;90.80;;;;;;4975984;28;20026;-44
2022/04/25 10:45:12;;;;;;;10.25;8.82;;;16.70;91.40;;;;;;4959996;28;20086;-44
2022/04/25 10:47:57;;;;;;;8.43;7.57;;;16.60;91.10;;;;;;5007128;28;20468;-50
2022/04/25 10:50:23;;;;;;;9.55;7.90;;;16.60;91.40;;;;;;4975294;28;20031;-50
2022/04/25 10:55:31;;;;;;;11.18;8.50;;;16.50;91.20;;;;;;4974648;28;20026;-49
2022/04/25 10:58:03;;;;;;;19.33;15.20;;;16.50;91.10;;;;;;4973455;28;20037;-48
2022/04/25 11:00:40;;;;;;;10.82;9.25;;;16.50;90.70;;;;;;4974790;28;20033;-48
2022/04/25 11:03:20;;;;;;;31.45;22.02;;;16.20;91.20;;;;;;4967152;28;20023;-46
2022/04/25 11:05:51;;;;;;;10.10;8.00;;;16.30;91.70;;;;;;4976176;28;20025;-48
2022/04/25 11:08:19;;;;;;;8.75;7.60;;;16.10;91.90;;;;;;4975585;28;20023;-47
2022/04/25 11:10:47;;;;;;;9.40;7.78;;;15.90;92.10;;;;;;4975911;28;20027;-47
2022/04/25 11:13:13;;;;;;;10.48;8.35;;;15.90;92.20;;;;;;4975104;28;20097;-47
2022/04/25 11:15:46;;;;;;;8.40;6.80;;;16.00;92.30;;;;;;4975631;28;20030;-47
2022/04/25 11:18:33;;;;;;;8.32;7.53;;;16.10;91.70;;;;;;4975098;28;20453;-45
2022/04/25 11:21:07;;;;;;;10.50;7.22;;;16.20;91.70;;;;;;4974987;28;20082;-48
2022/04/25 11:23:35;;;;;;;7.85;7.05;;;16.30;91.70;;;;;;4975245;28;20027;-42
2022/04/25 11:26:04;;;;;;;10.98;7.38;;;16.50;91.20;;;;;;4975354;28;20130;-47
2022/04/25 11:28:32;;;;;;;10.93;7.93;;;16.50;91.40;;;;;;4974509;28;20071;-45
2022/04/25 11:31:13;;;;;;;10.10;8.15;;;16.60;91.40;;;;;;4974285;28;20030;-48
2022/04/25 11:33:50;;;;;;;9.02;8.13;;;16.50;91.10;;;;;;4975139;28;20031;-46
2022/04/25 11:36:17;;;;;;;7.90;7.18;;;16.60;91.10;;;;;;4975345;28;20023;-44
2022/04/25 11:41:31;;;;;;;7.95;6.97;;;16.80;90.70;;;;;;4975098;28;20402;-47
2022/04/25 11:43:59;;;;;;;8.30;7.57;;;16.90;90.00;;;;;;4975218;28;20073;-43
2022/04/25 11:46:28;;;;;;;7.80;7.10;;;16.90;90.20;;;;;;4972797;28;20033;-49
2022/04/25 11:48:55;;;;;;;8.32;7.53;;;17.00;91.00;;;;;;4982785;28;20033;-47
2022/04/25 11:51:30;;;;;;;9.57;7.65;;;17.10;90.10;;;;;;4973733;28;20376;-42
2022/04/25 11:54:10;;;;;;;7.53;6.82;;;17.30;90.40;;;;;;4974907;28;20037;-47
2022/04/25 11:56:39;;;;;;;8.88;7.55;;;17.30;88.40;;;;;;4974232;28;20027;-48
2022/04/25 11:59:11;;;;;;;7.30;6.70;;;17.20;89.10;;;;;;4955323;28;20031;-45
2022/04/25 12:01:42;;;;;;;9.45;7.18;;;17.00;89.80;;;;;;4955608;28;20039;-46
2022/04/25 12:04:29;;;;;;;8.40;7.60;;;17.00;89.40;;;;;;4959633;28;20046;-46
2022/04/25 12:07:04;;;;;;;8.65;6.75;;;16.80;87.90;;;;;;4980481;28;20085;-48
2022/04/25 12:15:34;;;;;;;7.60;6.90;;;16.90;90.40;;;;;;4975470;28;20037;-48
2022/04/25 12:15:34;;;;;;;8.85;7.00;;;17.10;89.60;;;;;;4974838;28;20114;-44
2022/04/25 12:18:23;;;;;;;9.80;7.50;;;17.10;88.70;;;;;;4974474;28;20053;-48
2022/04/25 12:20:49;;;;;;;7.40;6.70;;;17.20;87.60;;;;;;4974634;28;20090;-51
2022/04/25 12:23:22;;;;;;;10.60;7.55;;;17.20;88.00;;;;;;4974591;28;20018;-51
2022/04/25 12:25:48;;;;;;;7.90;7.10;;;17.00;88.00;;;;;;4989354;28;20110;-47
2022/04/25 12:28:13;;;;;;;7.18;6.47;;;16.80;88.50;;;;;;4975099;28;20105;-43
2022/04/25 12:31:00;;;;;;;7.65;6.93;;;16.80;89.80;;;;;;4975055;28;20521;-49
2022/04/25 12:33:55;;;;;;;9.63;7.68;;;16.80;88.80;;;;;;4975127;28;20019;-45
2022/04/25 12:36:25;;;;;;;10.52;7.45;;;16.80;90.00;;;;;;4983807;28;20094;-43
2022/04/25 12:38:54;;;;;;;7.53;6.80;;;16.90;89.70;;;;;;4994562;28;20410;-42
2022/04/25 12:41:35;;;;;;;9.65;6.68;;;17.00;90.00;;;;;;4993224;28;20645;-39
2022/04/25 12:44:13;;;;;;;6.95;6.25;;;17.00;89.40;;;;;;4957775;28;20026;-39
2022/04/25 12:46:40;;;;;;;7.35;6.13;;;17.10;90.40;;;;;;4982880;28;20026;-44
2022/04/25 12:49:20;;;;;;;6.75;6.03;;;17.20;90.10;;;;;;4978949;28;20023;-42
2022/04/25 12:51:56;;;;;;;7.80;7.05;;;17.30;87.70;;;;;;5009643;28;20085;-45
2022/04/25 12:54:30;;;;;;;7.40;6.70;;;17.30;87.50;;;;;;5009095;28;20490;-41
2022/04/25 12:57:08;;;;;;;8.40;6.17;;;17.30;86.30;;;;;;4993612;28;20033;-44
2022/04/25 12:59:34;;;;;;;7.03;6.35;;;17.30;88.90;;;;;;4993836;28;20038;-42
2022/04/25 13:02:07;;;;;;;8.50;6.75;;;17.40;88.70;;;;;;4992922;28;20390;-44
2022/04/25 13:04:48;;;;;;;24.58;18.95;;;17.50;88.60;;;;;;4993074;28;20030;-49
2022/04/25 13:07:13;;;;;;;8.70;7.85;;;17.60;87.40;;;;;;4993546;28;20455;-44
2022/04/25 13:09:39;;;;;;;6.40;5.85;;;17.50;87.60;;;;;;4993230;28;20062;-41
2022/04/25 13:12:15;;;;;;;6.80;6.10;;;17.60;87.70;;;;;;4993266;28;20109;-43
2022/04/25 13:14:40;;;;;;;11.18;7.20;;;17.50;89.30;;;;;;4993110;28;20080;-43
2022/04/25 13:17:06;;;;;;;8.30;7.50;;;17.60;88.20;;;;;;4993706;28;20026;-42
2022/04/25 13:19:32;;;;;;;7.40;6.70;;;17.60;87.60;;;;;;4994220;28;20037;-45
2022/04/25 13:21:58;;;;;;;9.85;7.97;;;17.60;87.50;;;;;;4993868;28;20026;-45